createdAt,value
2023-04-15T00:00:01.744Z,952.95
2023-04-15T00:01:01.663Z,952.95
2023-04-15T00:02:01.775Z,952.94
2023-04-15T00:03:01.831Z,952.93
2023-04-15T00:04:01.871Z,952.93
2023-04-15T00:05:01.609Z,952.92
2023-04-15T00:06:01.607Z,952.91
2023-04-15T00:07:01.600Z,952.92
2023-04-15T00:08:01.571Z,952.91
2023-04-15T00:09:01.822Z,952.91
2023-04-15T00:10:01.542Z,952.91
2023-04-15T00:11:01.531Z,952.91
2023-04-15T00:12:01.520Z,952.92
2023-04-15T00:13:01.520Z,952.92
2023-04-15T00:14:01.504Z,952.93
2023-04-15T00:15:01.496Z,952.94
2023-04-15T00:16:01.491Z,952.95
2023-04-15T00:17:01.569Z,952.95
2023-04-15T00:18:01.473Z,952.95
2023-04-15T00:19:01.592Z,952.95
2023-04-15T00:20:01.473Z,952.95
2023-04-15T00:21:01.433Z,952.95
2023-04-15T00:22:01.427Z,952.95
2023-04-15T00:23:01.441Z,952.95
2023-04-15T00:24:01.411Z,952.95
2023-04-15T00:25:01.433Z,952.94
2023-04-15T00:26:01.398Z,952.94
2023-04-15T00:27:01.374Z,952.93
2023-04-15T00:28:01.504Z,952.93
2023-04-15T00:29:01.690Z,952.93
2023-04-15T00:30:01.361Z,952.93
2023-04-15T00:31:01.453Z,952.92
2023-04-15T00:32:01.367Z,952.93
2023-04-15T00:33:01.398Z,952.93
2023-04-15T00:34:01.348Z,952.92
2023-04-15T00:35:01.312Z,952.92
2023-04-15T00:36:01.329Z,952.90
2023-04-15T00:37:01.357Z,952.89
2023-04-15T00:38:01.247Z,952.86
2023-04-15T00:39:01.498Z,952.85
2023-04-15T00:40:01.220Z,952.85
2023-04-15T00:41:01.224Z,952.84
2023-04-15T00:42:01.277Z,952.84
2023-04-15T00:43:01.198Z,952.83
2023-04-15T00:44:01.283Z,952.82
2023-04-15T00:45:01.200Z,952.82
2023-04-15T00:46:01.184Z,952.82
2023-04-15T00:47:01.172Z,952.83
2023-04-15T00:48:01.224Z,952.83
2023-04-15T00:49:01.280Z,952.83
2023-04-15T00:50:01.118Z,952.82
2023-04-15T00:51:01.124Z,952.83
2023-04-15T00:52:01.126Z,952.83
2023-04-15T00:53:01.114Z,952.84
2023-04-15T00:54:01.098Z,952.85
2023-04-15T00:55:01.099Z,952.86
2023-04-15T00:56:01.066Z,952.88
2023-04-15T00:57:01.068Z,952.88
2023-04-15T00:58:01.094Z,952.89
2023-04-15T00:59:01.231Z,952.89
2023-04-15T01:00:01.056Z,952.89
2023-04-15T01:01:01.033Z,952.89
2023-04-15T01:02:01.083Z,952.90
2023-04-15T01:03:01.117Z,952.90
2023-04-15T01:04:01.133Z,952.90
2023-04-15T01:05:00.987Z,952.91
2023-04-15T01:06:03.630Z,952.91
2023-04-15T01:07:00.949Z,952.90
2023-04-15T01:08:00.953Z,952.90
2023-04-15T01:09:01.125Z,952.89
2023-04-15T01:10:00.927Z,952.88
2023-04-15T01:11:00.918Z,952.88
2023-04-15T01:12:00.898Z,952.88
2023-04-15T01:13:00.917Z,952.88
2023-04-15T01:14:00.894Z,952.88
2023-04-15T01:15:00.871Z,952.88
2023-04-15T01:16:00.911Z,952.88
2023-04-15T01:17:00.872Z,952.87
2023-04-15T01:18:00.909Z,952.86
2023-04-15T01:19:01.049Z,952.86
2023-04-15T01:20:00.893Z,952.85
2023-04-15T01:21:00.830Z,952.84
2023-04-15T01:22:00.810Z,952.85
2023-04-15T01:23:00.818Z,952.85
2023-04-15T01:24:00.818Z,952.84
2023-04-15T01:25:00.776Z,952.84
2023-04-15T01:26:00.772Z,952.83
2023-04-15T01:27:00.764Z,952.82
2023-04-15T01:28:00.752Z,952.81
2023-04-15T01:29:00.962Z,952.81
2023-04-15T01:30:00.784Z,952.82
2023-04-15T01:31:00.773Z,952.83
2023-04-15T01:32:00.702Z,952.84
2023-04-15T01:33:00.728Z,952.84
2023-04-15T01:34:00.721Z,952.84
2023-04-15T01:35:00.690Z,952.84
2023-04-15T01:36:00.662Z,952.83
2023-04-15T01:37:00.688Z,952.83
2023-04-15T01:38:00.650Z,952.82
2023-04-15T01:39:00.798Z,952.81
2023-04-15T01:40:00.647Z,952.80
2023-04-15T01:41:00.660Z,952.81
2023-04-15T01:42:00.640Z,952.81
2023-04-15T01:43:00.587Z,952.81
2023-04-15T01:44:00.624Z,952.81
2023-04-15T01:45:00.596Z,952.81
2023-04-15T01:46:00.568Z,952.81
2023-04-15T01:47:00.639Z,952.81
2023-04-15T01:48:00.607Z,952.81
2023-04-15T01:49:00.677Z,952.80
2023-04-15T01:50:00.529Z,952.79
2023-04-15T01:51:00.521Z,952.78
2023-04-15T01:52:00.517Z,952.77
2023-04-15T01:53:00.500Z,952.77
2023-04-15T01:54:00.508Z,952.77
2023-04-15T01:55:00.495Z,952.78
2023-04-15T01:56:00.455Z,952.78
2023-04-15T01:57:00.475Z,952.77
2023-04-15T01:58:00.451Z,952.77
2023-04-15T01:59:00.637Z,952.77
2023-04-15T02:00:00.446Z,952.77
2023-04-15T02:01:00.525Z,952.77
2023-04-15T02:02:00.446Z,952.76
2023-04-15T02:03:00.555Z,952.75
2023-04-15T02:04:00.410Z,952.75
2023-04-15T02:05:00.377Z,952.75
2023-04-15T02:06:00.377Z,952.75
2023-04-15T02:07:00.368Z,952.75
2023-04-15T02:08:00.343Z,952.75
2023-04-15T02:09:00.648Z,952.76
2023-04-15T02:10:00.328Z,952.76
2023-04-15T02:11:00.353Z,952.76
2023-04-15T02:12:00.307Z,952.77
2023-04-15T02:13:00.330Z,952.77
2023-04-15T02:14:00.296Z,952.77
2023-04-15T02:15:00.274Z,952.77
2023-04-15T02:16:00.277Z,952.76
2023-04-15T02:17:00.277Z,952.76
2023-04-15T02:18:00.275Z,952.75
2023-04-15T02:19:00.516Z,952.74
2023-04-15T02:20:00.228Z,952.73
2023-04-15T02:21:00.211Z,952.71
2023-04-15T02:22:00.232Z,952.70
2023-04-15T02:23:00.229Z,952.69
2023-04-15T02:24:00.199Z,952.68
2023-04-15T02:25:00.189Z,952.68
2023-04-15T02:26:00.177Z,952.68
2023-04-15T02:27:00.198Z,952.67
2023-04-15T02:28:00.152Z,952.66
2023-04-15T02:29:00.465Z,952.66
2023-04-15T02:30:00.306Z,952.66
2023-04-15T02:31:00.136Z,952.66
2023-04-15T02:32:00.243Z,952.66
2023-04-15T02:33:00.170Z,952.65
2023-04-15T02:34:00.127Z,952.65
2023-04-15T02:35:00.081Z,952.65
2023-04-15T02:36:00.072Z,952.65
2023-04-15T02:37:00.062Z,952.65
2023-04-15T02:38:00.066Z,952.65
2023-04-15T02:39:00.289Z,952.65
2023-04-15T02:40:00.056Z,952.65
2023-04-15T02:41:00.046Z,952.65
2023-04-15T02:42:00.038Z,952.64
2023-04-15T02:43:00.022Z,952.63
2023-04-15T02:44:00.005Z,952.63
2023-04-15T02:44:59.983Z,952.62
2023-04-15T02:46:00.058Z,952.61
2023-04-15T02:46:59.972Z,952.60
2023-04-15T02:47:59.972Z,952.60
2023-04-15T02:49:00.473Z,952.60
2023-04-15T02:49:59.945Z,952.62
2023-04-15T02:51:00.007Z,952.63
2023-04-15T02:51:59.926Z,952.64
2023-04-15T02:52:59.905Z,952.66
2023-04-15T02:53:59.915Z,952.67
2023-04-15T02:54:59.893Z,952.67
2023-04-15T02:55:59.865Z,952.68
2023-04-15T02:56:59.853Z,952.68
2023-04-15T02:57:59.859Z,952.69
2023-04-15T02:59:00.061Z,952.69
2023-04-15T02:59:59.829Z,952.70
2023-04-15T03:00:59.849Z,952.70
2023-04-15T03:01:59.858Z,952.70
2023-04-15T03:02:59.954Z,952.71
2023-04-15T03:03:59.885Z,952.70
2023-04-15T03:04:59.780Z,952.70
2023-04-15T03:05:59.768Z,952.70
2023-04-15T03:06:59.772Z,952.69
2023-04-15T03:07:59.767Z,952.70
2023-04-15T03:08:59.887Z,952.70
2023-04-15T03:09:59.762Z,952.71
2023-04-15T03:10:59.724Z,952.71
2023-04-15T03:11:59.734Z,952.71
2023-04-15T03:12:59.691Z,952.72
2023-04-15T03:13:59.722Z,952.71
2023-04-15T03:14:59.699Z,952.72
2023-04-15T03:15:59.710Z,952.72
2023-04-15T03:16:59.705Z,952.72
2023-04-15T03:17:59.700Z,952.72
2023-04-15T03:18:59.905Z,952.72
2023-04-15T03:19:59.671Z,952.72
2023-04-15T03:20:59.617Z,952.72
2023-04-15T03:21:59.649Z,952.73
2023-04-15T03:22:59.601Z,952.73
2023-04-15T03:23:59.608Z,952.74
2023-04-15T03:24:59.586Z,952.73
2023-04-15T03:25:59.571Z,952.72
2023-04-15T03:26:59.581Z,952.71
2023-04-15T03:27:59.580Z,952.69
2023-04-15T03:28:59.912Z,952.67
2023-04-15T03:29:59.563Z,952.65
2023-04-15T03:30:59.533Z,952.64
2023-04-15T03:31:59.528Z,952.62
2023-04-15T03:32:59.636Z,952.62
2023-04-15T03:33:59.488Z,952.60
2023-04-15T03:34:59.493Z,952.60
2023-04-15T03:35:59.476Z,952.59
2023-04-15T03:36:59.454Z,952.58
2023-04-15T03:37:59.466Z,952.57
2023-04-15T03:38:59.657Z,952.57
2023-04-15T03:39:59.381Z,952.56
2023-04-15T03:40:59.425Z,952.56
2023-04-15T03:41:59.424Z,952.57
2023-04-15T03:42:59.436Z,952.57
2023-04-15T03:43:59.398Z,952.58
2023-04-15T03:44:59.394Z,952.59
2023-04-15T03:46:01.373Z,952.59
2023-04-15T03:46:59.371Z,952.59
2023-04-15T03:48:15.631Z,952.58
2023-04-15T03:48:59.448Z,952.57
2023-04-15T03:49:59.331Z,952.56
2023-04-15T03:50:59.330Z,952.55
2023-04-15T03:51:59.320Z,952.55
2023-04-15T03:52:59.318Z,952.55
2023-04-15T03:53:59.354Z,952.56
2023-04-15T03:54:59.275Z,952.58
2023-04-15T03:55:59.284Z,952.60
2023-04-15T03:56:59.224Z,952.60
2023-04-15T03:57:59.211Z,952.60
2023-04-15T03:58:59.336Z,952.59
2023-04-15T03:59:59.203Z,952.59
2023-04-15T04:00:59.178Z,952.59
2023-04-15T04:01:59.350Z,952.59
2023-04-15T04:02:59.295Z,952.59
2023-04-15T04:03:59.260Z,952.58
2023-04-15T04:04:59.129Z,952.57
2023-04-15T04:05:59.151Z,952.57
2023-04-15T04:06:59.120Z,952.57
2023-04-15T04:07:59.109Z,952.56
2023-04-15T04:08:59.166Z,952.56
2023-04-15T04:09:59.106Z,952.57
2023-04-15T04:10:59.097Z,952.58
2023-04-15T04:11:59.084Z,952.58
2023-04-15T04:12:59.075Z,952.59
2023-04-15T04:13:59.044Z,952.60
2023-04-15T04:14:59.114Z,952.60
2023-04-15T04:15:59.133Z,952.62
2023-04-15T04:16:59.069Z,952.63
2023-04-15T04:17:59.115Z,952.63
2023-04-15T04:18:59.150Z,952.64
2023-04-15T04:19:58.992Z,952.65
2023-04-15T04:20:58.991Z,952.66
2023-04-15T04:21:58.996Z,952.67
2023-04-15T04:22:58.974Z,952.68
2023-04-15T04:23:58.989Z,952.69
2023-04-15T04:24:58.953Z,952.69
2023-04-15T04:25:58.921Z,952.70
2023-04-15T04:26:58.921Z,952.71
2023-04-15T04:27:58.971Z,952.71
2023-04-15T04:28:59.022Z,952.71
2023-04-15T04:29:58.872Z,952.71
2023-04-15T04:30:58.864Z,952.71
2023-04-15T04:31:58.917Z,952.71
2023-04-15T04:32:59.039Z,952.72
2023-04-15T04:33:58.838Z,952.72
2023-04-15T04:34:58.824Z,952.71
2023-04-15T04:35:58.810Z,952.71
2023-04-15T04:36:58.810Z,952.70
2023-04-15T04:37:58.823Z,952.69
2023-04-15T04:38:58.854Z,952.69
2023-04-15T04:39:58.797Z,952.70
2023-04-15T04:40:58.779Z,952.71
2023-04-15T04:41:58.787Z,952.72
2023-04-15T04:42:58.787Z,952.73
2023-04-15T04:43:58.746Z,952.74
2023-04-15T04:44:58.745Z,952.75
2023-04-15T04:45:58.768Z,952.76
2023-04-15T04:46:58.720Z,952.76
2023-04-15T04:47:58.745Z,952.76
2023-04-15T04:48:58.700Z,952.76
2023-04-15T04:49:58.679Z,952.76
2023-04-15T04:50:58.686Z,952.77
2023-04-15T04:51:58.661Z,952.78
2023-04-15T04:52:58.657Z,952.79
2023-04-15T04:53:58.656Z,952.79
2023-04-15T04:54:58.650Z,952.80
2023-04-15T04:55:58.632Z,952.80
2023-04-15T04:56:58.598Z,952.80
2023-04-15T04:57:58.621Z,952.80
2023-04-15T04:58:58.695Z,952.80
2023-04-15T04:59:58.578Z,952.79
2023-04-15T05:00:58.596Z,952.79
2023-04-15T05:01:58.624Z,952.79
2023-04-15T05:02:58.695Z,952.80
2023-04-15T05:03:58.651Z,952.81
2023-04-15T05:04:58.538Z,952.81
2023-04-15T05:05:58.513Z,952.82
2023-04-15T05:06:58.537Z,952.81
2023-04-15T05:07:58.519Z,952.81
2023-04-15T05:08:58.539Z,952.81
2023-04-15T05:09:58.526Z,952.81
2023-04-15T05:10:58.463Z,952.81
2023-04-15T05:11:58.471Z,952.82
2023-04-15T05:12:58.532Z,952.84
2023-04-15T05:13:58.468Z,952.87
2023-04-15T05:14:58.432Z,952.90
2023-04-15T05:15:58.500Z,952.94
2023-04-15T05:16:58.422Z,952.93
2023-04-15T05:17:58.441Z,952.92
2023-04-15T05:18:58.430Z,952.90
2023-04-15T05:19:58.395Z,952.88
2023-04-15T05:20:58.381Z,952.87
2023-04-15T05:21:58.353Z,952.87
2023-04-15T05:22:58.361Z,952.87
2023-04-15T05:23:58.364Z,952.87
2023-04-15T05:24:58.322Z,952.87
2023-04-15T05:25:58.336Z,952.87
2023-04-15T05:26:58.297Z,952.86
2023-04-15T05:27:58.320Z,952.87
2023-04-15T05:28:58.290Z,952.88
2023-04-15T05:29:58.305Z,952.88
2023-04-15T05:30:58.342Z,952.89
2023-04-15T05:31:58.278Z,952.90
2023-04-15T05:32:58.352Z,952.91
2023-04-15T05:33:58.252Z,952.91
2023-04-15T05:34:58.256Z,952.92
2023-04-15T05:35:58.214Z,952.93
2023-04-15T05:36:58.194Z,952.93
2023-04-15T05:37:58.221Z,952.94
2023-04-15T05:38:58.186Z,952.95
2023-04-15T05:39:58.168Z,952.94
2023-04-15T05:40:58.152Z,952.94
2023-04-15T05:41:58.156Z,952.93
2023-04-15T05:42:58.150Z,952.92
2023-04-15T05:43:58.126Z,952.92
2023-04-15T05:44:58.111Z,952.92
2023-04-15T05:45:58.137Z,952.92
2023-04-15T05:46:58.114Z,952.91
2023-04-15T05:47:58.140Z,952.92
2023-04-15T05:48:58.089Z,952.91
2023-04-15T05:49:58.075Z,952.91
2023-04-15T05:50:58.078Z,952.91
2023-04-15T05:51:58.047Z,952.90
2023-04-15T05:52:58.048Z,952.90
2023-04-15T05:53:58.034Z,952.90
2023-04-15T05:54:58.028Z,952.91
2023-04-15T05:55:58.028Z,952.92
2023-04-15T05:56:58.012Z,952.94
2023-04-15T05:57:57.992Z,952.95
2023-04-15T05:58:57.986Z,952.96
2023-04-15T05:59:57.989Z,952.97
2023-04-15T06:00:57.964Z,952.98
2023-04-15T06:01:57.984Z,952.99
2023-04-15T06:02:58.068Z,953.00
2023-04-15T06:03:58.048Z,953.02
2023-04-15T06:04:58.008Z,953.02
2023-04-15T06:05:57.903Z,953.02
2023-04-15T06:06:57.895Z,953.03
2023-04-15T06:07:57.887Z,953.03
2023-04-15T06:08:57.900Z,953.03
2023-04-15T06:09:57.875Z,953.02
2023-04-15T06:10:57.856Z,953.01
2023-04-15T06:11:57.864Z,953.00
2023-04-15T06:12:57.869Z,952.99
2023-04-15T06:13:57.866Z,952.98
2023-04-15T06:14:59.581Z,952.97
2023-04-15T06:15:57.904Z,952.97
2023-04-15T06:16:57.835Z,952.98
2023-04-15T06:17:57.850Z,952.99
2023-04-15T06:18:57.797Z,953.00
2023-04-15T06:19:57.764Z,953.01
2023-04-15T06:20:57.769Z,953.02
2023-04-15T06:21:57.761Z,953.03
2023-04-15T06:22:57.740Z,953.04
2023-04-15T06:23:57.738Z,953.05
2023-04-15T06:24:57.729Z,953.06
2023-04-15T06:25:57.720Z,953.07
2023-04-15T06:26:57.697Z,953.08
2023-04-15T06:27:58.354Z,953.08
2023-04-15T06:28:57.722Z,953.08
2023-04-15T06:29:57.698Z,953.08
2023-04-15T06:30:57.656Z,953.08
2023-04-15T06:31:57.744Z,953.08
2023-04-15T06:32:57.705Z,953.08
2023-04-15T06:33:57.654Z,953.07
2023-04-15T06:34:57.619Z,953.07
2023-04-15T06:35:57.619Z,953.08
2023-04-15T06:36:57.638Z,953.07
2023-04-15T06:37:57.580Z,953.07
2023-04-15T06:38:57.594Z,953.09
2023-04-15T06:39:57.560Z,953.08
2023-04-15T06:40:57.549Z,953.09
2023-04-15T06:41:57.538Z,953.10
2023-04-15T06:42:57.614Z,953.10
2023-04-15T06:43:57.561Z,953.11
2023-04-15T06:44:57.540Z,953.12
2023-04-15T06:45:57.563Z,953.13
2023-04-15T06:46:57.486Z,953.14
2023-04-15T06:47:57.508Z,953.14
2023-04-15T06:48:57.485Z,953.15
2023-04-15T06:49:57.468Z,953.15
2023-04-15T06:50:57.448Z,953.15
2023-04-15T06:51:57.442Z,953.16
2023-04-15T06:52:57.444Z,953.16
2023-04-15T06:53:57.413Z,953.15
2023-04-15T06:54:57.434Z,953.14
2023-04-15T06:55:57.395Z,953.14
2023-04-15T06:56:57.390Z,953.14
2023-04-15T06:57:57.407Z,953.13
2023-04-15T06:58:57.366Z,953.13
2023-04-15T06:59:57.419Z,953.13
2023-04-15T07:00:57.362Z,953.13
2023-04-15T07:01:57.412Z,953.13
2023-04-15T07:02:57.377Z,953.14
2023-04-15T07:03:57.326Z,953.14
2023-04-15T07:04:57.303Z,953.14
2023-04-15T07:05:57.304Z,953.14
2023-04-15T07:06:57.303Z,953.14
2023-04-15T07:07:57.292Z,953.14
2023-04-15T07:08:57.264Z,953.14
2023-04-15T07:09:57.243Z,953.14
2023-04-15T07:10:57.284Z,953.14
2023-04-15T07:11:57.248Z,953.13
2023-04-15T07:12:57.259Z,953.12
2023-04-15T07:13:57.217Z,953.11
2023-04-15T07:14:57.230Z,953.09
2023-04-15T07:15:57.203Z,953.08
2023-04-15T07:16:57.194Z,953.07
2023-04-15T07:17:57.220Z,953.06
2023-04-15T07:18:57.177Z,953.05
2023-04-15T07:19:57.139Z,953.03
2023-04-15T07:20:57.168Z,953.02
2023-04-15T07:21:57.120Z,953.02
2023-04-15T07:22:57.196Z,953.01
2023-04-15T07:23:57.119Z,953.01
2023-04-15T07:24:57.112Z,953.01
2023-04-15T07:25:57.087Z,953.01
2023-04-15T07:26:58.547Z,953.01
2023-04-15T07:27:57.101Z,953.02
2023-04-15T07:28:57.055Z,953.02
2023-04-15T07:29:57.057Z,953.03
2023-04-15T07:30:57.079Z,953.04
2023-04-15T07:31:57.041Z,953.05
2023-04-15T07:32:57.088Z,953.05
2023-04-15T07:33:57.007Z,953.05
2023-04-15T07:34:57.012Z,953.06
2023-04-15T07:35:56.986Z,953.07
2023-04-15T07:36:56.981Z,953.07
2023-04-15T07:37:56.961Z,953.07
2023-04-15T07:38:56.970Z,953.07
2023-04-15T07:39:56.959Z,953.07
2023-04-15T07:40:56.941Z,953.07
2023-04-15T07:41:56.943Z,953.07
2023-04-15T07:42:56.935Z,953.07
2023-04-15T07:43:56.925Z,953.07
2023-04-15T07:44:56.898Z,953.06
2023-04-15T07:45:56.925Z,953.06
2023-04-15T07:46:56.896Z,953.05
2023-04-15T07:47:56.956Z,953.04
2023-04-15T07:48:56.878Z,953.03
2023-04-15T07:49:56.877Z,953.02
2023-04-15T07:50:56.886Z,953.02
2023-04-15T07:51:56.841Z,953.01
2023-04-15T07:52:56.823Z,953.01
2023-04-15T07:53:56.815Z,953.01
2023-04-15T07:54:56.851Z,953.02
2023-04-15T07:55:56.786Z,953.02
2023-04-15T07:56:56.761Z,953.02
2023-04-15T07:57:56.789Z,953.01
2023-04-15T07:58:56.761Z,953.02
2023-04-15T07:59:56.737Z,953.01
2023-04-15T08:00:56.775Z,953.01
2023-04-15T08:01:56.763Z,953.01
2023-04-15T08:02:56.882Z,953.01
2023-04-15T08:03:56.938Z,953.01
2023-04-15T08:04:56.704Z,953.01
2023-04-15T08:05:56.664Z,953.01
2023-04-15T08:06:56.682Z,953.02
2023-04-15T08:07:56.662Z,953.01
2023-04-15T08:08:56.667Z,953.00
2023-04-15T08:09:56.638Z,953.00
2023-04-15T08:10:56.618Z,952.98
2023-04-15T08:11:56.631Z,952.98
2023-04-15T08:12:56.598Z,952.98
2023-04-15T08:13:56.623Z,952.97
2023-04-15T08:14:56.599Z,952.97
2023-04-15T08:15:56.588Z,952.98
2023-04-15T08:16:56.579Z,952.98
2023-04-15T08:17:56.554Z,952.98
2023-04-15T08:18:56.559Z,952.98
2023-04-15T08:19:56.517Z,952.99
2023-04-15T08:20:56.529Z,953.00
2023-04-15T08:21:56.498Z,953.01
2023-04-15T08:22:56.493Z,953.01
2023-04-15T08:23:56.529Z,953.03
2023-04-15T08:24:56.474Z,953.04
2023-04-15T08:25:56.488Z,953.04
2023-04-15T08:26:56.488Z,953.03
2023-04-15T08:27:56.427Z,953.04
2023-04-15T08:28:56.476Z,953.04
2023-04-15T08:29:56.436Z,953.02
2023-04-15T08:30:56.405Z,953.02
2023-04-15T08:31:56.478Z,953.02
2023-04-15T08:32:56.461Z,953.01
2023-04-15T08:33:56.389Z,953.00
2023-04-15T08:34:56.378Z,952.99
2023-04-15T08:35:56.358Z,953.01
2023-04-15T08:36:56.359Z,953.00
2023-04-15T08:37:56.345Z,953.00
2023-04-15T08:38:56.380Z,953.02
2023-04-15T08:39:56.316Z,953.02
2023-04-15T08:40:56.305Z,953.02
2023-04-15T08:41:56.288Z,953.02
2023-04-15T08:42:56.293Z,953.03
2023-04-15T08:43:56.292Z,953.03
2023-04-15T08:44:56.274Z,953.04
2023-04-15T08:45:56.249Z,953.05
2023-04-15T08:46:56.304Z,953.05
2023-04-15T08:47:56.275Z,953.04
2023-04-15T08:48:56.249Z,953.05
2023-04-15T08:49:56.231Z,953.04
2023-04-15T08:50:56.209Z,953.05
2023-04-15T08:51:56.210Z,953.05
2023-04-15T08:52:56.282Z,953.04
2023-04-15T08:53:56.216Z,953.04
2023-04-15T08:54:56.176Z,953.05
2023-04-15T08:55:56.159Z,953.04
2023-04-15T08:56:56.154Z,953.05
2023-04-15T08:57:56.123Z,953.03
2023-04-15T08:58:56.165Z,953.03
2023-04-15T08:59:56.132Z,953.06
2023-04-15T09:00:56.212Z,953.04
2023-04-15T09:01:56.136Z,953.04
2023-04-15T09:02:56.139Z,953.05
2023-04-15T09:03:56.183Z,953.06
2023-04-15T09:04:56.068Z,953.06
2023-04-15T09:05:56.052Z,953.10
2023-04-15T09:06:56.032Z,953.11
2023-04-15T09:07:56.084Z,953.10
2023-04-15T09:08:56.035Z,953.13
2023-04-15T09:09:56.005Z,953.13
2023-04-15T09:10:56.016Z,953.12
2023-04-15T09:11:56.001Z,953.14
2023-04-15T09:12:55.988Z,953.13
2023-04-15T09:13:56.003Z,953.12
2023-04-15T09:14:55.948Z,953.14
2023-04-15T09:15:55.974Z,953.15
2023-04-15T09:16:56.002Z,953.16
2023-04-15T09:17:55.949Z,953.17
2023-04-15T09:18:55.949Z,953.17
2023-04-15T09:19:55.939Z,953.17
2023-04-15T09:20:55.896Z,953.22
2023-04-15T09:21:58.432Z,953.22
2023-04-15T09:22:55.864Z,953.23
2023-04-15T09:23:55.883Z,953.24
2023-04-15T09:24:55.862Z,953.24
2023-04-15T09:25:55.830Z,953.24
2023-04-15T09:26:55.827Z,953.27
2023-04-15T09:27:55.819Z,953.27
2023-04-15T09:28:55.927Z,953.30
2023-04-15T09:29:55.815Z,953.26
2023-04-15T09:30:55.792Z,953.25
2023-04-15T09:31:55.865Z,953.26
2023-04-15T09:32:55.800Z,953.27
2023-04-15T09:33:55.771Z,953.26
2023-04-15T09:34:55.758Z,953.28
2023-04-15T09:35:55.738Z,953.31
2023-04-15T09:36:55.715Z,953.30
2023-04-15T09:37:55.802Z,953.30
2023-04-15T09:38:55.697Z,953.30
2023-04-15T09:39:55.680Z,953.29
2023-04-15T09:40:55.708Z,953.29
2023-04-15T09:41:55.678Z,953.29
2023-04-15T09:42:55.680Z,953.27
2023-04-15T09:43:55.672Z,953.31
2023-04-15T09:44:55.682Z,953.30
2023-04-15T09:45:55.712Z,953.31
2023-04-15T09:46:55.637Z,953.34
2023-04-15T09:47:56.962Z,953.36
2023-04-15T09:48:55.622Z,953.36
2023-04-15T09:49:55.627Z,953.37
2023-04-15T09:50:55.635Z,953.44
2023-04-15T09:52:04.930Z,953.38
2023-04-15T09:52:55.646Z,953.42
2023-04-15T09:53:55.556Z,953.40
2023-04-15T09:54:55.546Z,953.39
2023-04-15T09:55:55.554Z,953.42
2023-04-15T09:56:55.515Z,953.40
2023-04-15T09:57:55.506Z,953.39
2023-04-15T09:58:55.515Z,953.42
2023-04-15T09:59:55.509Z,953.40
2023-04-15T10:00:55.467Z,953.41
2023-04-15T10:01:55.589Z,953.40
2023-04-15T10:02:55.562Z,953.44
2023-04-15T10:03:55.519Z,953.38
2023-04-15T10:04:55.434Z,953.41
2023-04-15T10:05:55.427Z,953.43
2023-04-15T10:06:55.434Z,953.41
2023-04-15T10:07:55.411Z,953.41
2023-04-15T10:08:55.446Z,953.40
2023-04-15T10:09:55.376Z,953.39
2023-04-15T10:10:55.390Z,953.38
2023-04-15T10:11:55.349Z,953.38
2023-04-15T10:12:55.378Z,953.38
2023-04-15T10:13:55.351Z,953.39
2023-04-15T10:14:55.342Z,953.40
2023-04-15T10:15:55.461Z,953.44
2023-04-15T10:16:55.323Z,953.46
2023-04-15T10:17:55.327Z,953.50
2023-04-15T10:18:55.315Z,953.42
2023-04-15T10:19:55.283Z,953.43
2023-04-15T10:20:55.279Z,953.42
2023-04-15T10:21:55.297Z,953.42
2023-04-15T10:22:55.317Z,953.44
2023-04-15T10:23:55.296Z,953.46
2023-04-15T10:24:55.293Z,953.50
2023-04-15T10:25:55.255Z,953.49
2023-04-15T10:26:55.219Z,953.49
2023-04-15T10:27:55.206Z,953.51
2023-04-15T10:28:55.186Z,953.51
2023-04-15T10:29:55.181Z,953.52
2023-04-15T10:30:55.194Z,953.53
2023-04-15T10:31:55.151Z,953.53
2023-04-15T10:32:55.192Z,953.53
2023-04-15T10:33:55.146Z,953.56
2023-04-15T10:34:55.143Z,953.53
2023-04-15T10:35:55.101Z,953.54
2023-04-15T10:36:55.092Z,953.52
2023-04-15T10:37:55.127Z,953.60
2023-04-15T10:38:55.126Z,953.57
2023-04-15T10:39:55.081Z,953.60
2023-04-15T10:40:55.071Z,953.60
2023-04-15T10:41:55.051Z,953.62
2023-04-15T10:42:55.040Z,953.64
2023-04-15T10:43:55.035Z,953.67
2023-04-15T10:44:55.010Z,953.68
2023-04-15T10:45:55.008Z,953.67
2023-04-15T10:46:55.155Z,953.69
2023-04-15T10:47:55.026Z,953.70
2023-04-15T10:48:55.009Z,953.71
2023-04-15T10:49:54.983Z,953.73
2023-04-15T10:50:54.944Z,953.71
2023-04-15T10:51:54.956Z,953.73
2023-04-15T10:52:54.935Z,953.72
2023-04-15T10:53:54.930Z,953.74
2023-04-15T10:54:54.922Z,953.71
2023-04-15T10:55:54.914Z,953.71
2023-04-15T10:56:54.912Z,953.72
2023-04-15T10:57:54.914Z,953.74
2023-04-15T10:58:54.878Z,953.75
2023-04-15T10:59:54.874Z,953.77
2023-04-15T11:00:54.862Z,953.76
2023-04-15T11:01:55.020Z,953.77
2023-04-15T11:02:54.945Z,953.75
2023-04-15T11:03:54.985Z,953.78
2023-04-15T11:04:55.098Z,953.79
2023-04-15T11:05:54.817Z,953.79
2023-04-15T11:06:54.808Z,953.80
2023-04-15T11:07:54.792Z,953.79
2023-04-15T11:08:54.783Z,953.77
2023-04-15T11:09:54.765Z,953.78
2023-04-15T11:10:54.791Z,953.78
2023-04-15T11:11:54.746Z,953.79
2023-04-15T11:12:54.726Z,953.82
2023-04-15T11:13:54.739Z,953.84
2023-04-15T11:14:54.706Z,953.84
2023-04-15T11:15:54.688Z,953.88
2023-04-15T11:16:54.711Z,953.88
2023-04-15T11:17:54.693Z,953.89
2023-04-15T11:18:54.700Z,953.88
2023-04-15T11:19:54.648Z,953.88
2023-04-15T11:20:54.634Z,953.91
2023-04-15T11:21:54.621Z,953.91
2023-04-15T11:23:13.855Z,953.89
2023-04-15T11:23:54.647Z,953.91
2023-04-15T11:24:54.608Z,953.90
2023-04-15T11:25:54.587Z,953.89
2023-04-15T11:26:54.581Z,953.87
2023-04-15T11:27:54.564Z,953.88
2023-04-15T11:28:54.576Z,953.89
2023-04-15T11:29:54.553Z,953.86
2023-04-15T11:30:54.543Z,953.87
2023-04-15T11:31:54.576Z,953.89
2023-04-15T11:32:54.556Z,953.86
2023-04-15T11:33:54.560Z,953.88
2023-04-15T11:34:54.510Z,953.88
2023-04-15T11:35:54.490Z,953.89
2023-04-15T11:36:54.500Z,953.88
2023-04-15T11:37:54.531Z,953.97
2023-04-15T11:38:54.469Z,953.97
2023-04-15T11:39:54.468Z,953.95
2023-04-15T11:40:54.439Z,953.97
2023-04-15T11:41:54.421Z,953.94
2023-04-15T11:42:54.458Z,953.94
2023-04-15T11:43:54.441Z,953.93
2023-04-15T11:44:54.388Z,954.02
2023-04-15T11:45:54.472Z,953.99
2023-04-15T11:46:54.370Z,954.02
2023-04-15T11:47:54.446Z,954.02
2023-04-15T11:48:54.366Z,954.01
2023-04-15T11:49:54.333Z,954.01
2023-04-15T11:50:54.351Z,954.07
2023-04-15T11:51:54.457Z,954.05
2023-04-15T11:52:54.326Z,954.04
2023-04-15T11:53:54.319Z,954.01
2023-04-15T11:54:54.294Z,953.95
2023-04-15T11:55:54.306Z,954.02
2023-04-15T11:56:54.258Z,953.99
2023-04-15T11:57:54.283Z,954.01
2023-04-15T11:58:54.262Z,954.05
2023-04-15T11:59:54.250Z,954.06
2023-04-15T12:00:54.240Z,954.08
2023-04-15T12:01:54.273Z,954.09
2023-04-15T12:02:54.322Z,954.08
2023-04-15T12:03:54.381Z,954.15
2023-04-15T12:04:54.265Z,954.16
2023-04-15T12:05:54.183Z,954.18
2023-04-15T12:06:54.184Z,954.19
2023-04-15T12:07:54.162Z,954.21
2023-04-15T12:08:54.159Z,954.15
2023-04-15T12:09:54.149Z,954.19
2023-04-15T12:10:54.132Z,954.19
2023-04-15T12:11:54.124Z,954.19
2023-04-15T12:12:54.098Z,954.28
2023-04-15T12:13:54.116Z,954.29
2023-04-15T12:14:54.084Z,954.33
2023-04-15T12:15:54.112Z,954.32
2023-04-15T12:16:54.127Z,954.32
2023-04-15T12:17:54.108Z,954.36
2023-04-15T12:18:54.060Z,954.38
2023-04-15T12:19:54.021Z,954.34
2023-04-15T12:20:54.011Z,954.31
2023-04-15T12:21:54.026Z,954.35
2023-04-15T12:22:54.008Z,954.36
2023-04-15T12:23:54.005Z,954.35
2023-04-15T12:24:53.998Z,954.37
2023-04-15T12:25:53.976Z,954.39
2023-04-15T12:26:54.015Z,954.41
2023-04-15T12:27:53.972Z,954.41